Time,TemperatureF,DewpointF,PressureIn,WindDirection,WindDirectionDegrees,WindSpeedMPH,WindSpeedGustMPH,Humidity,HourlyPrecipIn,Conditions,Clouds,dailyrainin,SoftwareType,DateUTC
2013-06-19 00:43:00,83.1,56.2,29.94,NE,45,2.8,2.8,40,0.00,,SKC,0.00,WUHU21623XXSP,2013-06-18 21:43:00,
2013-06-19 01:43:00,81.3,54.6,29.93,NE,45,2.8,2.8,40,0.00,,SKC,0.00,WUHU21623XXSP,2013-06-18 22:43:00,
2013-06-19 02:43:00,81.3,54.6,29.93,SW,225,5.4,5.4,40,0.00,,SKC,0.00,WUHU21623XXSP,2013-06-18 23:43:00,
2013-06-19 03:43:00,80.2,53.6,29.93,NNW,338,1.0,1.0,40,0.00,,SKC,0.00,WUHU21623XXSP,2013-06-19 00:43:00,
2013-06-19 04:43:00,78.1,53.8,29.93,East,90,0.0,0.0,43,0.00,,SKC,0.00,WUHU21623XXSP,2013-06-19 01:43:00,
2013-06-19 05:38:00,76.6,53.7,29.93,ESE,112,0.0,0.0,45,0.00,,SKC,0.00,WUHU21623XXSP,2013-06-19 02:38:00,
2013-06-19 05:43:00,76.5,53.6,29.93,ENE,67,0.0,0.0,45,0.00,,SKC,0.00,WUHU21623XXSP,2013-06-19 02:43:00,
2013-06-19 05:48:00,76.8,53.9,29.93,WNW,292,0.0,0.0,45,0.00,,SKC,0.00,WUHU21623XXSP,2013-06-19 02:48:00,
2013-06-19 05:53:00,77.2,54.8,29.93,NNW,337,0.0,0.0,46,0.00,,SKC,0.00,WUHU21623XXSP,2013-06-19 02:53:00,
2013-06-19 05:59:00,77.2,54.2,29.93,NNW,337,0.0,1.4,45,0.00,,SKC,0.00,WUHU21623XXSP,2013-06-19 02:59:00,
2013-06-19 06:04:00,77.7,54.7,29.93,NNE,22,3.7,6.4,45,0.00,,SKC,0.00,WUHU21623XXSP,2013-06-19 03:04:00,
2013-06-19 06:08:00,77.9,53.6,29.93,NE,45,1.4,8.1,43,0.00,,SKC,0.00,WUHU21623XXSP,2013-06-19 03:08:00,
2013-06-19 06:14:00,78.4,53.4,29.93,NE,45,1.0,8.4,42,0.00,,SKC,0.00,WUHU21623XXSP,2013-06-19 03:14:00,
2013-06-19 06:19:00,78.8,53.7,29.93,NNE,22,0.0,9.1,42,0.00,,SKC,0.00,WUHU21623XXSP,2013-06-19 03:19:00,
2013-06-19 06:24:00,79.0,53.9,29.93,NE,45,0.0,9.1,42,0.00,,SKC,0.00,WUHU21623XXSP,2013-06-19 03:24:00,
2013-06-19 06:29:00,79.0,53.9,29.93,East,90,2.8,8.4,42,0.00,,SKC,0.00,WUHU21623XXSP,2013-06-19 03:29:00,
2013-06-19 06:43:00,79.2,54.1,29.93,East,90,0.0,0.0,42,0.00,,SKC,0.00,WUHU21623XXSP,2013-06-19 03:43:00,
2013-06-19 07:43:00,81.0,55.7,29.94,ENE,68,0.0,0.0,42,0.00,,SKC,0.00,WUHU21623XXSP,2013-06-19 04:43:00,
2013-06-19 08:43:00,83.7,56.0,29.93,North,0,4.9,4.9,39,0.00,,SKC,0.00,WUHU21623XXSP,2013-06-19 05:43:00,
2013-06-19 09:43:00,86.2,56.8,29.93,NE,45,3.7,3.7,37,0.00,,SKC,0.00,WUHU21623XXSP,2013-06-19 06:43:00,
2013-06-19 10:24:00,86.7,54.9,29.93,North,0,4.9,4.9,34,0.00,,SKC,0.00,WUHU21623XXSP,2013-06-19 07:24:00,
2013-06-19 10:29:00,87.3,55.4,29.92,NNE,22,12.5,13.3,34,0.00,,SKC,0.00,WUHU21623XXSP,2013-06-19 07:29:00,
2013-06-19 10:34:00,87.3,55.4,29.93,NNW,337,7.4,14.1,34,0.00,,SKC,0.00,WUHU21623XXSP,2013-06-19 07:34:00,
2013-06-19 10:39:00,87.3,55.4,29.93,NW,315,10.8,19.1,34,0.00,,SKC,0.00,WUHU21623XXSP,2013-06-19 07:39:00,
2013-06-19 10:44:00,87.1,55.2,29.93,North,0,0.0,19.1,34,0.00,,SKC,0.00,WUHU21623XXSP,2013-06-19 07:44:00,
2013-06-19 10:49:00,87.6,55.7,29.93,North,0,11.8,15.0,34,0.00,,SKC,0.00,WUHU21623XXSP,2013-06-19 07:49:00,
2013-06-19 10:55:00,88.0,56.0,29.92,NE,45,8.4,14.3,34,0.00,,SKC,0.00,WUHU21623XXSP,2013-06-19 07:55:00,
2013-06-19 11:00:00,88.2,56.2,29.92,NE,45,10.6,14.5,34,0.00,,SKC,0.00,WUHU21623XXSP,2013-06-19 08:00:00,
2013-06-19 11:05:00,88.2,56.2,29.92,NNE,22,5.6,14.7,34,0.00,,SKC,0.00,WUHU21623XXSP,2013-06-19 08:05:00,
2013-06-19 11:10:00,88.3,56.3,29.93,East,90,5.4,14.7,34,0.00,,SKC,0.00,WUHU21623XXSP,2013-06-19 08:10:00,
2013-06-19 11:15:00,88.7,56.6,29.92,East,90,2.0,14.3,34,0.00,,SKC,0.00,WUHU21623XXSP,2013-06-19 08:15:00,
2013-06-19 11:43:00,89.1,57.0,29.92,NE,45,4.9,4.9,34,0.00,,SKC,0.00,WUHU21623XXSP,2013-06-19 08:43:00,
2013-06-19 12:12:00,89.1,57.0,29.91,ENE,67,6.4,6.4,34,0.00,,SKC,0.00,WUHU21623XXSP,2013-06-19 09:12:00,
2013-06-19 12:17:00,89.2,57.1,29.91,ENE,67,0.0,13.5,34,0.00,,SKC,0.00,WUHU21623XXSP,2013-06-19 09:17:00,
2013-06-19 12:23:00,89.6,57.4,29.91,NNE,22,6.9,17.3,34,0.00,,SKC,0.00,WUHU21623XXSP,2013-06-19 09:23:00,
2013-06-19 12:28:00,89.2,57.1,29.91,NNE,22,15.7,18.3,34,0.00,,SKC,0.00,WUHU21623XXSP,2013-06-19 09:28:00,
2013-06-19 12:33:00,89.4,57.2,29.91,East,90,9.4,18.3,34,0.00,,SKC,0.00,WUHU21623XXSP,2013-06-19 09:33:00,
2013-06-19 12:38:00,89.8,57.6,29.91,ENE,67,15.7,19.7,34,0.00,,SKC,0.00,WUHU21623XXSP,2013-06-19 09:38:00,
2013-06-19 12:43:00,90.0,57.8,29.91,ENE,67,4.0,19.7,34,0.00,,SKC,0.00,WUHU21623XXSP,2013-06-19 09:43:00,
2013-06-19 12:48:00,90.0,57.8,29.91,South,180,7.6,19.1,34,0.00,,SKC,0.00,WUHU21623XXSP,2013-06-19 09:48:00,
2013-06-19 12:53:00,90.3,58.0,29.91,NE,45,6.4,21.7,34,0.00,,SKC,0.00,WUHU21623XXSP,2013-06-19 09:53:00,
2013-06-19 12:58:00,90.5,58.2,29.91,ENE,67,7.4,21.7,34,0.00,,SKC,0.00,WUHU21623XXSP,2013-06-19 09:58:00,
2013-06-19 13:03:00,90.9,58.6,29.90,NNE,22,15.0,19.7,34,0.00,,SKC,0.00,WUHU21623XXSP,2013-06-19 10:03:00,
2013-06-19 13:08:00,91.0,58.6,29.91,North,0,6.9,19.7,34,0.00,,SKC,0.00,WUHU21623XXSP,2013-06-19 10:08:00,
2013-06-19 13:13:00,91.0,58.6,29.90,NNE,22,8.4,23.1,34,0.00,,SKC,0.00,WUHU21623XXSP,2013-06-19 10:13:00,
2013-06-19 13:18:00,91.6,59.2,29.90,NNE,22,22.7,23.1,34,0.00,,SKC,0.00,WUHU21623XXSP,2013-06-19 10:18:00,
2013-06-19 13:23:00,90.9,58.6,29.89,NNE,22,18.5,27.1,34,0.00,,SKC,0.00,WUHU21623XXSP,2013-06-19 10:23:00,
2013-06-19 13:43:00,91.4,59.0,29.89,North,0,17.5,17.5,34,0.00,,SKC,0.00,WUHU21623XXSP,2013-06-19 10:43:00,
2013-06-19 14:14:00,91.8,59.4,29.89,ENE,67,7.6,7.6,34,0.00,,SKC,0.00,WUHU21623XXSP,2013-06-19 11:14:00,
2013-06-19 14:19:00,91.6,59.2,29.89,ESE,112,5.9,20.9,34,0.00,,SKC,0.00,WUHU21623XXSP,2013-06-19 11:19:00,
2013-06-19 14:24:00,91.6,59.2,29.88,North,0,2.4,22.9,34,0.00,,SKC,0.00,WUHU21623XXSP,2013-06-19 11:24:00,
2013-06-19 14:29:00,92.1,59.6,29.88,ENE,67,10.8,22.9,34,0.00,,SKC,0.00,WUHU21623XXSP,2013-06-19 11:29:00,
2013-06-19 14:34:00,92.1,59.6,29.88,ENE,67,11.8,17.9,34,0.00,,SKC,0.00,WUHU21623XXSP,2013-06-19 11:34:00,
2013-06-19 14:39:00,91.8,59.4,29.88,NNE,22,5.2,24.6,34,0.00,,SKC,0.00,WUHU21623XXSP,2013-06-19 11:39:00,
2013-06-19 14:43:00,91.8,59.4,29.88,NE,45,5.4,24.6,34,0.00,,SKC,0.00,WUHU21623XXSP,2013-06-19 11:43:00,
2013-06-19 15:43:00,92.3,59.8,29.88,NE,45,5.2,5.2,34,0.00,,SKC,0.00,WUHU21623XXSP,2013-06-19 12:43:00,
2013-06-19 16:29:00,92.1,59.6,29.87,ESE,112,3.4,3.4,34,0.00,,SKC,0.00,WUHU21623XXSP,2013-06-19 13:29:00,
2013-06-19 16:34:00,92.3,59.8,29.88,North,0,21.7,22.1,34,0.00,,SKC,0.00,WUHU21623XXSP,2013-06-19 13:34:00,
2013-06-19 16:39:00,91.9,59.4,29.87,NE,45,16.9,28.8,34,0.00,,SKC,0.00,WUHU21623XXSP,2013-06-19 13:39:00,
2013-06-19 16:44:00,91.9,59.4,29.86,NNE,22,17.9,28.8,34,0.00,,SKC,0.00,WUHU21623XXSP,2013-06-19 13:44:00,
2013-06-19 16:49:00,91.8,59.4,29.86,NE,45,11.1,23.1,34,0.00,,SKC,0.00,WUHU21623XXSP,2013-06-19 13:49:00,
2013-06-19 16:54:00,91.8,59.4,29.86,NE,45,4.2,23.1,34,0.00,,SKC,0.00,WUHU21623XXSP,2013-06-19 13:54:00,
2013-06-19 17:31:00,90.9,58.6,29.86,NE,45,6.6,6.6,34,0.00,,SKC,0.00,WUHU21623XXSP,2013-06-19 14:31:00,
2013-06-19 17:36:00,90.9,58.6,29.86,ENE,67,4.7,18.3,34,0.00,,SKC,0.00,WUHU21623XXSP,2013-06-19 14:36:00,
2013-06-19 17:43:00,90.0,57.8,29.85,ENE,68,3.7,24.3,34,0.00,,SKC,0.00,WUHU21623XXSP,2013-06-19 14:43:00,
2013-06-19 18:19:00,88.9,56.8,29.86,North,0,14.1,14.1,34,0.00,,SKC,0.00,WUHU21623XXSP,2013-06-19 15:19:00,
2013-06-19 18:23:00,88.7,56.6,29.86,North,0,10.1,14.1,34,0.00,,SKC,0.00,WUHU21623XXSP,2013-06-19 15:23:00,
2013-06-19 18:28:00,88.7,56.6,29.86,East,90,5.2,17.3,34,0.00,,SKC,0.00,WUHU21623XXSP,2013-06-19 15:28:00,
2013-06-19 18:43:00,88.5,56.4,29.86,NE,45,13.5,13.5,34,0.00,,SKC,0.00,WUHU21623XXSP,2013-06-19 15:43:00,
2013-06-19 19:43:00,86.9,55.0,29.88,NE,45,12.3,12.3,34,0.00,,SKC,0.00,WUHU21623XXSP,2013-06-19 16:43:00,
2013-06-19 20:18:00,85.8,54.1,29.88,ENE,67,2.2,2.2,34,0.00,,SKC,0.00,WUHU21623XXSP,2013-06-19 17:18:00,
2013-06-19 20:23:00,85.6,53.9,29.88,NE,45,4.0,18.3,34,0.00,,SKC,0.00,WUHU21623XXSP,2013-06-19 17:23:00,
2013-06-19 20:28:00,85.3,53.6,29.88,NNE,22,9.4,18.3,34,0.00,,SKC,0.00,WUHU21623XXSP,2013-06-19 17:28:00,
2013-06-19 20:33:00,85.1,53.5,29.88,NE,45,2.8,15.0,34,0.00,,SKC,0.00,WUHU21623XXSP,2013-06-19 17:33:00,
2013-06-19 20:38:00,84.9,53.3,29.88,East,90,0.0,15.0,34,0.00,,SKC,0.00,WUHU21623XXSP,2013-06-19 17:38:00,
2013-06-19 20:43:00,84.9,53.3,29.88,ESE,112,1.0,15.0,34,0.00,,SKC,0.00,WUHU21623XXSP,2013-06-19 17:43:00,
2013-06-19 20:48:00,84.7,53.1,29.88,ENE,67,3.4,14.7,34,0.00,,SKC,0.00,WUHU21623XXSP,2013-06-19 17:48:00,
2013-06-19 21:43:00,83.7,52.2,29.89,NNE,23,12.1,12.1,34,0.00,,SKC,0.00,WUHU21623XXSP,2013-06-19 18:43:00,
2013-06-19 22:00:00,83.1,51.7,29.89,NE,45,0.0,0.0,34,0.00,,SKC,0.00,WUHU21623XXSP,2013-06-19 19:00:00,
2013-06-19 22:05:00,82.9,51.5,29.89,SE,135,0.0,5.9,34,0.00,,SKC,0.00,WUHU21623XXSP,2013-06-19 19:05:00,
2013-06-19 22:10:00,82.8,51.4,29.89,ENE,67,2.2,8.6,34,0.00,,SKC,0.00,WUHU21623XXSP,2013-06-19 19:10:00,
2013-06-19 22:15:00,82.4,51.9,29.90,SSE,157,0.0,8.9,35,0.00,,SKC,0.00,WUHU21623XXSP,2013-06-19 19:15:00,
2013-06-19 22:20:00,82.6,53.6,29.90,SSE,157,0.0,8.9,37,0.00,,SKC,0.00,WUHU21623XXSP,2013-06-19 19:20:00,
2013-06-19 22:25:00,82.0,53.1,29.89,ESE,112,0.0,4.9,37,0.00,,SKC,0.00,WUHU21623XXSP,2013-06-19 19:25:00,
2013-06-19 22:30:00,82.4,53.4,29.90,SE,135,1.4,3.0,37,0.00,,SKC,0.00,WUHU21623XXSP,2013-06-19 19:30:00,
2013-06-19 22:35:00,81.9,53.0,29.89,ESE,112,0.0,3.4,37,0.00,,SKC,0.00,WUHU21623XXSP,2013-06-19 19:35:00,
2013-06-19 22:40:00,81.9,53.0,29.89,SW,225,0.0,3.4,37,0.00,,SKC,0.00,WUHU21623XXSP,2013-06-19 19:40:00,
2013-06-19 22:45:00,81.7,53.5,29.90,WNW,292,0.0,4.9,38,0.00,,SKC,0.00,WUHU21623XXSP,2013-06-19 19:45:00,
2013-06-19 22:50:00,81.5,53.3,29.90,NNW,337,0.0,4.9,38,0.00,,SKC,0.00,WUHU21623XXSP,2013-06-19 19:50:00,
2013-06-19 22:55:00,81.3,53.2,29.90,SSW,202,0.0,4.4,38,0.00,,SKC,0.00,WUHU21623XXSP,2013-06-19 19:55:00,
2013-06-19 23:43:00,81.5,54.1,29.89,ENE,68,4.4,4.4,39,0.00,,SKC,0.00,WUHU21623XXSP,2013-06-19 20:43:00,